createdAt,value
2023-02-13T00:01:16.299Z,6.525030240067281
2023-02-13T00:04:16.019Z,6.486495219032804
2023-02-13T00:07:16.095Z,6.4563094639904195
2023-02-13T00:11:16.070Z,6.422270220355131
2023-02-13T00:14:16.424Z,6.430619467611632
2023-02-13T00:17:16.491Z,6.394653484904938
2023-02-13T00:21:16.157Z,6.424839219429122
2023-02-13T00:24:16.777Z,6.378597247229481
2023-02-13T00:27:16.495Z,6.391442237142473
2023-02-13T00:31:17.933Z,6.368321256608761
2023-02-13T00:34:16.273Z,6.396580233616987
2023-02-13T00:37:16.041Z,6.34455803275714
2023-02-13T00:41:17.099Z,6.379881746138926
2023-02-13T00:44:15.782Z,6.391442237142473
2023-02-13T00:47:15.805Z,6.4331884669220925
2023-02-13T00:51:16.270Z,6.438326465761293
2023-02-13T00:54:16.896Z,6.387588739977582
2023-02-13T00:57:16.735Z,6.362541012396195
2023-02-13T01:01:16.100Z,6.374101501189671
2023-02-13T01:04:16.375Z,6.350338275823742
2023-02-13T01:07:16.806Z,6.329786302149296
2023-02-13T01:11:16.133Z,6.3477692788597775
2023-02-13T01:14:16.360Z,6.350980525076102
2023-02-13T01:17:16.339Z,6.358687516459122
2023-02-13T01:21:18.972Z,6.288040119958987
2023-02-13T01:24:16.602Z,6.3028118437683585
2023-02-13T01:27:17.268Z,6.305380839459031
2023-02-13T01:31:15.683Z,6.272626149853113
2023-02-13T01:34:16.161Z,6.263634668500981
2023-02-13T01:37:16.260Z,6.248862951071715
2023-02-13T01:41:16.284Z,6.19427184231472
2023-02-13T01:44:51.110Z,6.15637920967165
2023-02-13T01:47:23.748Z,6.130689298239668
2023-02-13T01:51:20.216Z,6.102430404068218
2023-02-13T01:54:20.656Z,6.086374218120272
2023-02-13T01:57:20.454Z,6.010589058813002
2023-02-13T02:01:16.457Z,5.981045708778493
2023-02-13T02:04:21.487Z,5.981045708778493
2023-02-13T02:07:20.501Z,5.991321655525189
2023-02-13T02:11:23.039Z,5.966916283902629
2023-02-13T02:14:17.327Z,5.902049407037339
2023-02-13T02:17:16.899Z,5.925812514960216
2023-02-13T02:31:59.471Z,5.864156896471195
2023-02-13T02:34:28.501Z,5.837824822179755
2023-02-13T02:37:31.384Z,5.799290093093077
2023-02-13T02:41:53.643Z,5.761397625455084
2023-02-13T02:44:31.274Z,5.699742118724771
2023-02-13T02:51:22.785Z,5.621388306060635
2023-02-13T03:22:30.448Z,5.234115947323517
2023-02-13T03:24:24.480Z,5.206499573624842
2023-02-13T03:27:29.228Z,5.170534076297281
2023-02-13T03:31:28.085Z,5.18402113612392
2023-02-13T03:34:22.617Z,5.151266851452329
2023-02-13T03:38:27.144Z,5.0979608840400035
2023-02-13T03:41:23.964Z,5.036948068221773
2023-02-13T03:44:23.480Z,5.063922150153758
2023-02-13T03:47:16.767Z,5.104383288092504
2023-02-13T03:51:22.783Z,5.016396392133993
2023-02-13T03:54:20.748Z,5.058141989064461
2023-02-13T04:01:18.600Z,5.033736868526103
2023-02-13T04:04:24.459Z,5.011258473839644
2023-02-13T04:07:29.699Z,4.985568886733472
2023-02-13T04:11:24.493Z,5.018965351390307
2023-02-13T04:14:21.870Z,5.00483607638098
2023-02-13T04:17:22.052Z,5.006762795570831
2023-02-13T04:21:15.693Z,5.001624877822178
2023-02-13T04:24:16.047Z,5.00483607638098
2023-02-13T04:27:17.426Z,4.997771439701682
2023-02-13T04:31:16.218Z,5.053646308471889
2023-02-13T04:34:16.719Z,5.040801508006643
2023-02-13T04:37:16.293Z,5.060068709386632
2023-02-13T04:41:16.872Z,5.097318643659764
2023-02-13T04:44:16.546Z,5.127503946446813
2023-02-13T04:47:16.489Z,5.112732414040602
2023-02-13T04:51:16.476Z,5.115943616532968
2023-02-13T04:54:16.646Z,5.067133350918084
2023-02-13T04:57:16.806Z,5.054930788618458
2023-02-13T05:01:16.849Z,5.027314469475823
2023-02-13T05:04:17.724Z,5.020249831045748
2023-02-13T05:07:16.279Z,5.027956709360387
2023-02-13T05:11:16.288Z,5.122366021858761
2023-02-13T05:14:16.629Z,5.153193573752651
2023-02-13T05:17:16.753Z,5.140990999875157
2023-02-13T05:31:16.574Z,5.175029762683335
2023-02-13T05:34:17.045Z,5.2000771623418585
2023-02-13T05:37:16.696Z,5.24246508521328
2023-02-13T05:41:15.924Z,5.300909071960268
2023-02-13T05:44:16.352Z,5.309900457879121
2023-02-13T05:47:16.127Z,5.351003947715799
2023-02-13T05:51:15.714Z,5.355499643046732
2023-02-13T05:54:16.179Z,5.390822971257512
2023-02-13T05:57:16.215Z,5.401741093669353
2023-02-13T06:01:19.564Z,5.415870430506129
2023-02-13T06:04:19.643Z,5.437706682673979
2023-02-13T06:07:19.533Z,5.494866308827477
2023-02-13T06:11:17.651Z,5.495508552022602
2023-02-13T06:14:16.818Z,5.539823343468379
2023-02-13T06:17:16.453Z,5.517987066716887
2023-02-13T06:21:16.279Z,5.510280146765581
2023-02-13T06:24:16.704Z,5.528905204435523
2023-02-13T06:27:16.500Z,5.440275653862864
2023-02-13T06:31:16.231Z,5.442844625124508
2023-02-13T06:34:16.495Z,5.4126592173954124
2023-02-13T06:37:16.549Z,5.431284255020091
2023-02-13T06:41:16.210Z,5.447982567866075
2023-02-13T06:44:16.718Z,5.4126592173954124
2023-02-13T06:47:16.990Z,5.42165061439191
2023-02-13T06:51:15.640Z,5.326598748378819
2023-02-13T06:54:16.144Z,5.34843497905531
2023-02-13T06:57:16.259Z,5.339443589316579
2023-02-13T07:01:15.866Z,5.257236638747054
2023-02-13T07:04:16.231Z,5.267512503493708
2023-02-13T07:07:16.208Z,5.268154745079028
2023-02-13T07:11:17.453Z,5.244391809450827
2023-02-13T07:14:16.317Z,5.274577161182333
2023-02-13T07:17:17.374Z,5.252740948286464
2023-02-13T07:21:16.492Z,5.304762522959209
2023-02-13T07:24:16.656Z,5.351003947715799
2023-02-13T07:27:16.562Z,5.4274307986460375
2023-02-13T07:31:16.694Z,5.457616211290952
2023-02-13T07:34:16.995Z,5.539823343468379
2023-02-13T07:37:17.001Z,5.560375138154268
2023-02-13T07:41:15.844Z,5.596983033973174
2023-02-13T07:44:16.153Z,5.63744440969931
2023-02-13T07:47:19.013Z,5.655427249148852
2023-02-13T07:51:16.510Z,5.74020354028944
2023-02-13T07:54:22.779Z,5.789656413379362
2023-02-13T07:57:17.201Z,5.8937002084342565
2023-02-13T08:01:17.039Z,5.98425694201178
2023-02-13T08:04:16.932Z,6.088300960283959
2023-02-13T08:07:17.205Z,6.147387739842816
2023-02-13T08:12:21.464Z,6.267488160399898
2023-02-13T08:14:16.383Z,6.307307586274783
2023-02-13T08:17:17.844Z,6.382450744012385
2023-02-13T08:21:17.690Z,6.50126697516107
2023-02-13T08:24:18.198Z,6.524387989582555
2023-02-13T08:27:16.994Z,6.60531158646927
2023-02-13T08:31:16.033Z,6.726697117166259
2023-02-13T08:34:16.337Z,6.807620894542197
2023-02-13T08:37:16.506Z,6.869277154334123
2023-02-13T08:41:18.729Z,6.9784602172007
2023-02-13T08:44:16.260Z,7.072229305504879
2023-02-13T08:47:16.189Z,7.148015351815047
2023-02-13T08:51:17.013Z,7.267474841514195
2023-02-13T08:54:16.462Z,7.342618794673126
2023-02-13T08:57:16.360Z,7.420974094179201
2023-02-13T09:01:16.449Z,7.591172313994321
2023-02-13T09:04:18.532Z,7.664389759625555
2023-02-13T09:07:16.762Z,7.760086334683092
2023-02-13T09:11:16.912Z,7.873124029909468
2023-02-13T09:14:16.785Z,7.971389868053666
2023-02-13T09:17:19.027Z,8.076720688585192
2023-02-13T09:21:18.264Z,8.16920638794545
2023-02-13T09:24:16.536Z,8.259123130505031
2023-02-13T09:27:16.865Z,8.35738938680306
2023-02-13T09:31:18.652Z,8.47749273350928
2023-02-13T09:34:16.196Z,8.572547901388315
2023-02-13T09:37:16.192Z,8.704854584651548
2023-02-13T09:41:19.991Z,8.826885191746987
2023-02-13T09:44:38.222Z,8.96882626231536
2023-02-13T09:47:22.936Z,9.091499493179436
2023-02-13T09:51:19.490Z,9.259774037837996
2023-02-13T09:54:16.858Z,9.35226094340651
2023-02-13T09:57:24.631Z,9.474934692805345
2023-02-13T10:01:23.036Z,9.642567676189719
2023-02-13T10:04:28.824Z,9.796070948011856
2023-02-13T10:07:22.344Z,9.999671922685593
2023-02-13T10:11:34.915Z,10.234744909778238
2023-02-13T10:14:19.678Z,10.442842816504708
2023-02-13T10:17:22.540Z,10.658006277581535
2023-02-13T10:21:20.604Z,10.944463498360074
2023-02-13T10:24:27.331Z,11.198807439071334
2023-02-13T10:27:22.449Z,11.393419572246785
2023-02-13T10:31:22.039Z,11.659325934091248
2023-02-13T10:34:21.268Z,11.829532106232454
2023-02-13T10:37:18.551Z,12.012584383622743
2023-02-13T10:41:25.336Z,12.277207977908256
2023-02-13T10:44:33.235Z,12.41915444729175
2023-02-13T10:47:35.740Z,12.605419382070341
2023-02-13T10:51:27.817Z,12.887386683418663
2023-02-13T10:54:30.734Z,13.123109450743595
2023-02-13T10:57:23.855Z,13.27083792775893
2023-02-13T11:01:22.543Z,13.517480790694481
2023-02-13T11:04:18.557Z,13.688975051543457
2023-02-13T11:07:22.127Z,13.802020134849954
2023-02-13T11:11:34.631Z,14.016549259796738
2023-02-13T11:14:20.503Z,14.181621416858343
2023-02-13T11:17:20.071Z,14.326140088888133
2023-02-13T11:21:21.164Z,14.493782036857102
2023-02-13T11:24:22.119Z,14.634447358650869
2023-02-13T11:27:26.021Z,14.757770559922573
2023-02-13T11:31:25.439Z,14.888801644955311
2023-02-13T11:34:24.926Z,15.035890686453877
2023-02-13T11:37:22.323Z,15.13994508690821
2023-02-13T11:41:19.282Z,15.26134203827569
2023-02-13T11:44:22.919Z,15.362827445031144
2023-02-13T11:47:30.561Z,15.511201883274135
2023-02-13T11:51:16.467Z,15.582498777576621
2023-02-13T11:54:25.543Z,15.663430455223715
2023-02-13T11:57:20.837Z,15.712246422679163
2023-02-13T12:01:26.936Z,15.88181788214133
2023-02-13T12:04:21.554Z,15.98908484023059
2023-02-13T12:07:20.329Z,16.15030667447754
2023-02-13T12:11:21.614Z,16.167006960535947
2023-02-13T12:14:20.516Z,16.279412812061583
2023-02-13T12:17:31.193Z,16.33272535033211
2023-02-13T12:21:27.406Z,16.359702791273595
2023-02-13T12:24:30.032Z,16.506151896355732
2023-02-13T12:27:25.124Z,16.527348496938156
2023-02-13T12:31:32.540Z,16.719402770348825
2023-02-13T12:34:50.082Z,16.80547404821882
2023-02-13T12:37:33.030Z,16.88576449297843
2023-02-13T12:41:21.018Z,17.01808330097929
2023-02-13T13:01:25.140Z,17.455507529998794
2023-02-13T13:04:25.838Z,17.618016628141866
2023-02-13T13:07:33.410Z,17.58333086734574
2023-02-13T13:11:34.176Z,17.622512931438177
2023-02-13T13:14:25.347Z,17.738774565470614
2023-02-13T13:17:29.348Z,17.801722915678784
2023-02-13T13:21:30.065Z,17.94303569766571
2023-02-13T13:24:27.334Z,18.008553516720077
2023-02-13T13:27:22.435Z,17.99956087208784
2023-02-13T13:31:17.029Z,18.029108136369267
2023-02-13T13:34:21.753Z,18.059940074574207
2023-02-13T13:37:25.693Z,18.1440856259087
2023-02-13T13:41:21.257Z,18.1440856259087
2023-02-13T13:44:33.312Z,18.194187594304093
2023-02-13T13:47:28.103Z,18.30980762696272
2023-02-13T13:51:18.052Z,18.221807922044626
2023-02-13T13:54:19.192Z,18.24878592469913
2023-02-13T13:57:17.018Z,18.30017261861367
2023-02-13T14:01:20.086Z,18.379822051697648
2023-02-13T14:04:38.902Z,18.357982684055695
2023-02-13T14:07:23.446Z,18.38110672054618
2023-02-13T14:11:37.169Z,18.383676058297805
2023-02-13T14:14:48.538Z,18.387530065061675
2023-02-13T14:17:50.067Z,18.44662485594099
2023-02-13T14:21:23.278Z,18.49608465615638
2023-02-13T14:24:18.571Z,18.488376633570077
2023-02-13T14:27:22.847Z,18.51085836794382
2023-02-13T14:31:22.531Z,18.50636202062342
2023-02-13T14:34:23.359Z,18.41258111301722
2023-02-13T14:37:27.755Z,18.348990004789904
2023-02-13T14:41:43.143Z,18.366975364212795
2023-02-13T14:44:21.500Z,18.44341318153456
2023-02-13T14:47:21.388Z,18.46075622467988
2023-02-13T14:51:32.884Z,18.47617226581433
2023-02-13T14:54:24.658Z,18.472960590361982
2023-02-13T14:57:20.104Z,18.44598252105061
2023-02-13T15:01:27.988Z,18.398449751781662
2023-02-13T15:04:25.988Z,18.359909686871468
2023-02-13T15:07:23.680Z,18.323296640370337
2023-02-13T15:11:38.183Z,18.26355959621869
2023-02-13T15:14:19.145Z,18.2230925886558
2023-02-13T15:17:20.594Z,18.195472260524184
2023-02-13T15:21:20.850Z,18.10297633917107
2023-02-13T15:24:19.184Z,18.10747266650078
2023-02-13T15:27:20.315Z,18.036173787949156
2023-02-13T15:31:22.871Z,17.914130792535435
2023-02-13T15:34:21.044Z,17.883941234786562
2023-02-13T15:37:21.036Z,17.834481768269324
2023-02-13T15:41:20.826Z,17.770248735115455
2023-02-13T15:44:19.897Z,17.70216176962167
2023-02-13T15:47:25.702Z,17.6231552604987
2023-02-13T15:51:19.454Z,17.547360462748564
2023-02-13T15:54:24.813Z,17.416325538029287
2023-02-13T15:57:17.658Z,17.312268526743082
2023-02-13T16:01:17.029Z,17.163248817183284
2023-02-13T16:04:17.856Z,17.029645147739302
2023-02-13T16:07:16.790Z,16.926230904067417
2023-02-13T16:11:22.765Z,16.736103161162827
2023-02-13T16:14:20.132Z,16.628192997837687
2023-02-13T16:17:21.617Z,16.451554614630822
2023-02-13T16:21:20.843Z,16.326302151290292
2023-02-13T16:24:18.157Z,16.18178029307319
2023-02-13T16:27:18.030Z,16.01028132000938
2023-02-13T16:31:16.532Z,15.84713278510353
2023-02-13T16:34:24.700Z,15.746931468148613
2023-02-13T16:37:33.704Z,15.584425721443495
2023-02-13T16:41:32.833Z,15.274188286019854
2023-02-13T16:44:25.970Z,15.141229709881827
2023-02-13T16:47:22.302Z,15.053875389112454
2023-02-13T16:51:24.971Z,14.911282487387599
2023-02-13T16:54:22.380Z,14.841913048665537
2023-02-13T16:57:22.852Z,14.681978155953402
2023-02-13T17:01:18.910Z,14.590770431733471
2023-02-13T17:04:21.387Z,14.425697530209527
2023-02-13T17:07:20.362Z,14.256771097582895
2023-02-13T17:11:19.110Z,14.073071987932781
2023-02-13T17:14:18.565Z,13.917634570296286
2023-02-13T17:17:18.142Z,13.79945092684684
2023-02-13T17:21:16.390Z,13.664567608865037
2023-02-13T17:24:17.461Z,13.527115291136216
2023-02-13T17:27:16.787Z,13.408932156421724
2023-02-13T17:31:16.217Z,13.283041595312898
2023-02-13T17:34:16.466Z,13.141093774215642
2023-02-13T17:37:18.561Z,13.02098425291806
2023-02-13T17:41:16.684Z,12.99786158257957
2023-02-13T17:44:16.808Z,12.854629617084811
2023-02-13T17:47:17.016Z,12.739016536330837
2023-02-13T17:51:16.518Z,12.693413639442587
2023-02-13T17:54:16.768Z,12.557889672714463
2023-02-13T17:57:17.581Z,12.487879740774224
2023-02-13T18:01:16.605Z,12.388966718013762
2023-02-13T18:04:18.187Z,12.234174476765565
2023-02-13T18:07:19.837Z,12.096724326262574
2023-02-13T18:11:16.553Z,12.129481118929471
2023-02-13T18:14:16.918Z,12.011942094284404
2023-02-13T18:17:17.792Z,11.93422511791032
2023-02-13T18:21:15.844Z,11.796775421872734
2023-02-13T18:24:16.199Z,11.647764771716902
2023-02-13T18:27:16.838Z,11.562982959325018
2023-02-13T18:31:16.816Z,11.417184118762908
2023-02-13T18:34:16.315Z,11.382500728637478
2023-02-13T18:37:17.406Z,11.255970695609358
2023-02-13T18:41:15.884Z,11.10118038760129
2023-02-13T18:44:27.066Z,11.06007429209867
2023-02-13T18:47:16.300Z,10.951528598195
2023-02-13T18:51:15.719Z,10.819218638076928
2023-02-13T18:54:16.575Z,10.736364440922717
2023-02-13T18:57:16.173Z,10.634884209528627
2023-02-13T19:01:21.292Z,10.507712940584407
2023-02-13T19:04:16.435Z,10.339436080961695
2023-02-13T19:07:16.383Z,10.302183993932795
2023-02-13T19:11:18.760Z,10.15959856077834
2023-02-13T19:14:16.504Z,10.036281610136303
2023-02-13T19:17:16.481Z,9.93544443653991
2023-02-13T19:21:17.517Z,9.905899808183312
2023-02-13T19:24:16.419Z,9.849379676399986
2023-02-13T19:27:17.847Z,9.731201332830825
2023-02-13T19:31:18.513Z,9.666974036769535
2023-02-13T19:34:16.700Z,9.584763164167816
2023-02-13T19:37:16.756Z,9.473007878705175
2023-02-13T19:41:17.296Z,9.390797181890594
2023-02-13T19:44:16.609Z,9.250139990597471
2023-02-13T19:47:16.690Z,9.224449202958294
2023-02-13T19:51:18.717Z,9.178205803543188
2023-02-13T19:54:16.633Z,9.084434538208825
2023-02-13T19:57:16.579Z,8.963045852388314
2023-02-13T20:01:18.372Z,8.928363400561285
2023-02-13T20:04:17.052Z,8.854502667712314
2023-02-13T20:07:16.773Z,8.772934797838388
2023-02-13T20:11:20.839Z,8.672741294279694
2023-02-13T20:14:16.956Z,8.615579665546193
2023-02-13T20:17:17.293Z,8.552637689058702
2023-02-13T20:21:16.749Z,8.496118400449722
2023-02-13T20:24:16.313Z,8.409412742057247
2023-02-13T20:27:16.502Z,8.273252912439421
2023-02-13T20:31:19.264Z,8.292520800442436
2023-02-13T20:34:16.482Z,8.224440947815674
2023-02-13T20:37:16.692Z,8.129386144716772
2023-02-13T20:41:19.130Z,8.080574257509216
2023-02-13T20:44:18.689Z,7.967536303768066
2023-02-13T20:47:17.980Z,7.972032128783849
2023-02-13T20:51:18.563Z,7.931569711663542
2023-02-13T20:54:17.313Z,7.847433632261618
2023-02-13T20:57:17.124Z,7.796695118282514
2023-02-13T21:01:28.382Z,7.767151186507908
2023-02-13T21:04:20.848Z,7.76650892722837
2023-02-13T21:07:19.976Z,7.681088483572239
2023-02-13T21:11:18.305Z,7.603375217495431
2023-02-13T21:14:17.432Z,7.560343933514377
2023-02-13T21:17:16.999Z,7.465932083471216
2023-02-13T21:21:17.861Z,7.448591142104488
2023-02-13T21:24:20.156Z,7.433819231703183
2023-02-13T21:27:17.047Z,7.383723205646038
2023-02-13T21:31:18.996Z,7.279035445640693
2023-02-13T21:34:18.313Z,7.216094396555855
2023-02-13T21:37:17.202Z,7.194899971489304
2023-02-13T21:41:18.096Z,7.146730842028046
2023-02-13T21:44:16.787Z,7.09149693839463
2023-02-13T21:47:17.381Z,7.03947433898511
2023-02-13T21:51:18.318Z,7.038832084857859
2023-02-13T21:54:16.675Z,6.962403876183908
2023-02-13T21:57:16.471Z,6.9437785241651
2023-02-13T22:01:26.161Z,6.903316565716613
2023-02-13T22:04:17.297Z,6.848725063080201
2023-02-13T22:07:16.998Z,6.862212372440354
2023-02-13T22:11:16.794Z,6.847440557531445
2023-02-13T22:14:17.300Z,6.811474409551375
2023-02-13T22:17:16.266Z,6.756882962189502
2023-02-13T22:21:17.544Z,6.638066396210343
2023-02-13T22:24:16.694Z,6.625221371372755
2023-02-13T22:27:16.380Z,6.566776531328742
2023-02-13T22:31:17.331Z,6.551362513856384
2023-02-13T22:34:16.802Z,6.525030240067281
2023-02-13T22:37:16.625Z,6.476861466332139
2023-02-13T22:41:17.889Z,6.394653484904938
2023-02-13T22:44:16.087Z,6.411994224786758
2023-02-13T22:47:16.150Z,6.3477692788597775
2023-02-13T22:51:18.338Z,6.299600599257337
2023-02-13T22:54:16.594Z,6.2687726577359175
2023-02-13T22:57:16.477Z,6.210970295623065
2023-02-13T23:01:19.629Z,6.20390556500206
2023-02-13T23:04:16.888Z,6.18206912837959
2023-02-13T23:07:18.654Z,6.145460996424026
2023-02-13T23:21:16.479Z,6.025360737438677
2023-02-13T23:31:16.796Z,5.902691653115562
2023-02-13T23:34:17.164Z,5.901407160963663
2023-02-13T23:37:16.834Z,5.871221600630451
2023-02-13T23:41:16.412Z,5.814061737308021
2023-02-13T23:44:16.865Z,5.805070301412433
2023-02-13T23:47:16.887Z,5.84424727861915
2023-02-13T23:51:16.365Z,5.738276805519945
2023-02-13T23:54:18.892Z,5.770389057021475
2023-02-13T23:57:21.492Z,5.690108449583931
